sensor_id;sensor_type;location;lat;lon;timestamp;P1;durP1;ratioP1;P2;durP2;ratioP2
26965;SDS011;14522;52.068;4.414;2022-12-17T00:00:44;18.73;;;9.82;;
26965;SDS011;14522;52.068;4.414;2022-12-17T00:03:29;14.55;;;8.80;;
26965;SDS011;14522;52.068;4.414;2022-12-17T00:06:15;17.20;;;9.93;;
26965;SDS011;14522;52.068;4.414;2022-12-17T00:09:00;18.42;;;9.57;;
26965;SDS011;14522;52.068;4.414;2022-12-17T00:14:31;14.85;;;8.75;;
26965;SDS011;14522;52.068;4.414;2022-12-17T00:17:17;16.43;;;9.30;;
26965;SDS011;14522;52.068;4.414;2022-12-17T00:20:02;18.38;;;9.65;;
26965;SDS011;14522;52.068;4.414;2022-12-17T00:22:47;18.67;;;11.38;;
26965;SDS011;14522;52.068;4.414;2022-12-17T00:25:32;20.98;;;13.32;;
26965;SDS011;14522;52.068;4.414;2022-12-17T00:28:17;16.40;;;10.48;;
26965;SDS011;14522;52.068;4.414;2022-12-17T00:33:49;19.33;;;10.13;;
26965;SDS011;14522;52.068;4.414;2022-12-17T00:36:35;14.32;;;9.65;;
26965;SDS011;14522;52.068;4.414;2022-12-17T00:39:20;14.95;;;9.52;;
26965;SDS011;14522;52.068;4.414;2022-12-17T00:42:05;15.02;;;8.93;;
26965;SDS011;14522;52.068;4.414;2022-12-17T00:44:50;14.02;;;8.55;;
26965;SDS011;14522;52.068;4.414;2022-12-17T00:47:35;15.93;;;8.65;;
26965;SDS011;14522;52.068;4.414;2022-12-17T00:50:21;14.00;;;8.82;;
26965;SDS011;14522;52.068;4.414;2022-12-17T00:53:07;16.95;;;9.00;;
26965;SDS011;14522;52.068;4.414;2022-12-17T00:55:54;14.30;;;8.82;;
26965;SDS011;14522;52.068;4.414;2022-12-17T00:58:40;16.73;;;8.52;;
26965;SDS011;14522;52.068;4.414;2022-12-17T01:01:25;13.45;;;8.85;;
26965;SDS011;14522;52.068;4.414;2022-12-17T01:04:10;17.47;;;9.13;;
26965;SDS011;14522;52.068;4.414;2022-12-17T01:06:55;14.43;;;8.52;;
26965;SDS011;14522;52.068;4.414;2022-12-17T01:09:40;13.75;;;8.93;;
26965;SDS011;14522;52.068;4.414;2022-12-17T01:12:25;15.55;;;9.27;;
26965;SDS011;14522;52.068;4.414;2022-12-17T01:15:10;16.10;;;8.95;;
26965;SDS011;14522;52.068;4.414;2022-12-17T01:17:55;12.10;;;8.13;;
26965;SDS011;14522;52.068;4.414;2022-12-17T01:20:40;13.63;;;9.00;;
26965;SDS011;14522;52.068;4.414;2022-12-17T01:23:30;10.77;;;7.30;;
26965;SDS011;14522;52.068;4.414;2022-12-17T01:26:16;14.27;;;9.02;;
26965;SDS011;14522;52.068;4.414;2022-12-17T01:29:01;14.82;;;8.43;;
26965;SDS011;14522;52.068;4.414;2022-12-17T01:31:46;15.50;;;8.68;;
26965;SDS011;14522;52.068;4.414;2022-12-17T01:34:30;12.15;;;7.78;;
26965;SDS011;14522;52.068;4.414;2022-12-17T01:37:15;16.25;;;9.20;;
26965;SDS011;14522;52.068;4.414;2022-12-17T01:40:00;13.15;;;9.38;;
26965;SDS011;14522;52.068;4.414;2022-12-17T01:42:59;13.90;;;8.63;;
26965;SDS011;14522;52.068;4.414;2022-12-17T01:45:46;11.27;;;7.95;;
26965;SDS011;14522;52.068;4.414;2022-12-17T01:48:52;18.70;;;8.93;;
26965;SDS011;14522;52.068;4.414;2022-12-17T01:51:36;13.20;;;9.13;;
26965;SDS011;14522;52.068;4.414;2022-12-17T01:54:22;14.18;;;10.13;;
26965;SDS011;14522;52.068;4.414;2022-12-17T01:57:07;11.07;;;8.85;;
26965;SDS011;14522;52.068;4.414;2022-12-17T02:00:03;12.63;;;8.40;;
26965;SDS011;14522;52.068;4.414;2022-12-17T02:02:48;11.55;;;8.88;;
26965;SDS011;14522;52.068;4.414;2022-12-17T02:05:39;11.38;;;8.60;;
26965;SDS011;14522;52.068;4.414;2022-12-17T02:08:35;10.57;;;8.13;;
26965;SDS011;14522;52.068;4.414;2022-12-17T02:11:28;15.73;;;9.13;;
26965;SDS011;14522;52.068;4.414;2022-12-17T02:14:28;12.20;;;8.43;;
26965;SDS011;14522;52.068;4.414;2022-12-17T02:17:16;11.82;;;8.98;;
26965;SDS011;14522;52.068;4.414;2022-12-17T02:23:03;12.15;;;7.97;;
26965;SDS011;14522;52.068;4.414;2022-12-17T02:28:38;13.00;;;8.30;;
26965;SDS011;14522;52.068;4.414;2022-12-17T02:31:25;13.45;;;7.40;;
26965;SDS011;14522;52.068;4.414;2022-12-17T02:36:56;12.82;;;8.45;;
26965;SDS011;14522;52.068;4.414;2022-12-17T02:39:41;13.07;;;9.43;;
26965;SDS011;14522;52.068;4.414;2022-12-17T02:42:27;11.45;;;8.75;;
26965;SDS011;14522;52.068;4.414;2022-12-17T02:45:14;10.32;;;7.88;;
26965;SDS011;14522;52.068;4.414;2022-12-17T02:47:59;11.38;;;7.80;;
26965;SDS011;14522;52.068;4.414;2022-12-17T02:50:45;10.52;;;7.93;;
26965;SDS011;14522;52.068;4.414;2022-12-17T02:53:31;9.48;;;7.50;;
26965;SDS011;14522;52.068;4.414;2022-12-17T02:59:02;9.95;;;8.23;;
26965;SDS011;14522;52.068;4.414;2022-12-17T03:01:47;11.30;;;7.95;;
26965;SDS011;14522;52.068;4.414;2022-12-17T03:04:33;13.80;;;8.57;;
26965;SDS011;14522;52.068;4.414;2022-12-17T03:07:18;14.15;;;9.63;;
26965;SDS011;14522;52.068;4.414;2022-12-17T03:10:03;13.45;;;8.90;;
26965;SDS011;14522;52.068;4.414;2022-12-17T03:12:48;14.50;;;8.68;;
26965;SDS011;14522;52.068;4.414;2022-12-17T03:15:34;13.65;;;8.93;;
26965;SDS011;14522;52.068;4.414;2022-12-17T03:18:19;11.27;;;7.45;;
26965;SDS011;14522;52.068;4.414;2022-12-17T03:21:04;11.55;;;7.28;;
26965;SDS011;14522;52.068;4.414;2022-12-17T03:23:49;11.38;;;8.45;;
26965;SDS011;14522;52.068;4.414;2022-12-17T03:26:34;8.93;;;6.82;;
26965;SDS011;14522;52.068;4.414;2022-12-17T03:29:20;14.32;;;8.82;;
26965;SDS011;14522;52.068;4.414;2022-12-17T03:32:05;10.52;;;7.75;;
26965;SDS011;14522;52.068;4.414;2022-12-17T03:34:50;10.13;;;7.15;;
26965;SDS011;14522;52.068;4.414;2022-12-17T03:37:36;12.98;;;8.93;;
26965;SDS011;14522;52.068;4.414;2022-12-17T03:43:07;13.95;;;9.25;;
26965;SDS011;14522;52.068;4.414;2022-12-17T03:45:52;14.07;;;9.80;;
26965;SDS011;14522;52.068;4.414;2022-12-17T03:48:37;14.43;;;9.70;;
26965;SDS011;14522;52.068;4.414;2022-12-17T03:51:23;16.42;;;10.88;;
26965;SDS011;14522;52.068;4.414;2022-12-17T03:54:08;16.30;;;11.38;;
26965;SDS011;14522;52.068;4.414;2022-12-17T03:56:52;17.15;;;11.45;;
26965;SDS011;14522;52.068;4.414;2022-12-17T03:59:41;17.73;;;11.90;;
26965;SDS011;14522;52.068;4.414;2022-12-17T04:02:26;21.15;;;12.10;;
26965;SDS011;14522;52.068;4.414;2022-12-17T04:05:11;19.27;;;13.05;;
26965;SDS011;14522;52.068;4.414;2022-12-17T04:07:57;16.23;;;11.18;;
26965;SDS011;14522;52.068;4.414;2022-12-17T04:10:42;21.63;;;13.00;;
26965;SDS011;14522;52.068;4.414;2022-12-17T04:13:27;19.50;;;11.90;;
26965;SDS011;14522;52.068;4.414;2022-12-17T04:16:13;17.17;;;12.43;;
26965;SDS011;14522;52.068;4.414;2022-12-17T04:18:58;22.73;;;13.52;;
26965;SDS011;14522;52.068;4.414;2022-12-17T04:21:43;21.00;;;12.65;;
26965;SDS011;14522;52.068;4.414;2022-12-17T04:24:28;19.13;;;12.68;;
26965;SDS011;14522;52.068;4.414;2022-12-17T04:27:13;19.52;;;11.73;;
26965;SDS011;14522;52.068;4.414;2022-12-17T04:29:58;20.55;;;13.93;;
26965;SDS011;14522;52.068;4.414;2022-12-17T04:32:43;20.23;;;13.98;;
26965;SDS011;14522;52.068;4.414;2022-12-17T04:35:28;22.85;;;14.82;;
26965;SDS011;14522;52.068;4.414;2022-12-17T04:38:14;20.30;;;13.07;;
26965;SDS011;14522;52.068;4.414;2022-12-17T04:40:59;23.33;;;14.43;;
26965;SDS011;14522;52.068;4.414;2022-12-17T04:43:44;24.80;;;13.88;;
26965;SDS011;14522;52.068;4.414;2022-12-17T04:46:29;22.70;;;14.82;;
26965;SDS011;14522;52.068;4.414;2022-12-17T04:49:17;21.95;;;13.50;;
26965;SDS011;14522;52.068;4.414;2022-12-17T04:52:02;22.98;;;14.07;;
26965;SDS011;14522;52.068;4.414;2022-12-17T04:54:47;14.60;;;9.70;;
26965;SDS011;14522;52.068;4.414;2022-12-17T04:57:32;24.10;;;14.60;;
26965;SDS011;14522;52.068;4.414;2022-12-17T05:00:17;20.38;;;13.75;;
26965;SDS011;14522;52.068;4.414;2022-12-17T05:03:06;27.17;;;15.52;;
26965;SDS011;14522;52.068;4.414;2022-12-17T05:05:51;24.63;;;14.85;;
26965;SDS011;14522;52.068;4.414;2022-12-17T05:08:36;20.75;;;13.30;;
26965;SDS011;14522;52.068;4.414;2022-12-17T05:11:21;23.75;;;14.10;;
26965;SDS011;14522;52.068;4.414;2022-12-17T05:14:06;25.13;;;15.02;;
26965;SDS011;14522;52.068;4.414;2022-12-17T05:16:51;22.05;;;14.88;;
26965;SDS011;14522;52.068;4.414;2022-12-17T05:19:36;25.40;;;14.68;;
26965;SDS011;14522;52.068;4.414;2022-12-17T05:22:21;25.20;;;15.23;;
26965;SDS011;14522;52.068;4.414;2022-12-17T05:25:06;30.65;;;16.33;;
26965;SDS011;14522;52.068;4.414;2022-12-17T05:27:51;25.00;;;15.73;;
26965;SDS011;14522;52.068;4.414;2022-12-17T05:30:36;27.55;;;15.48;;
26965;SDS011;14522;52.068;4.414;2022-12-17T05:33:21;28.40;;;17.20;;
26965;SDS011;14522;52.068;4.414;2022-12-17T05:36:06;27.33;;;15.77;;
26965;SDS011;14522;52.068;4.414;2022-12-17T05:38:52;18.90;;;11.52;;
26965;SDS011;14522;52.068;4.414;2022-12-17T05:41:37;31.58;;;16.55;;
26965;SDS011;14522;52.068;4.414;2022-12-17T05:44:22;28.77;;;16.00;;
26965;SDS011;14522;52.068;4.414;2022-12-17T05:47:07;22.73;;;12.95;;
26965;SDS011;14522;52.068;4.414;2022-12-17T05:49:52;23.77;;;14.13;;
26965;SDS011;14522;52.068;4.414;2022-12-17T05:52:38;28.80;;;17.42;;
26965;SDS011;14522;52.068;4.414;2022-12-17T05:55:22;30.90;;;17.83;;
26965;SDS011;14522;52.068;4.414;2022-12-17T05:58:09;26.50;;;15.45;;
26965;SDS011;14522;52.068;4.414;2022-12-17T06:03:39;27.45;;;17.45;;
26965;SDS011;14522;52.068;4.414;2022-12-17T06:06:24;22.95;;;14.45;;
26965;SDS011;14522;52.068;4.414;2022-12-17T06:09:09;25.08;;;16.63;;
26965;SDS011;14522;52.068;4.414;2022-12-17T06:11:54;28.30;;;16.70;;
26965;SDS011;14522;52.068;4.414;2022-12-17T06:15:00;27.90;;;17.55;;
26965;SDS011;14522;52.068;4.414;2022-12-17T06:17:51;30.77;;;17.45;;
26965;SDS011;14522;52.068;4.414;2022-12-17T06:20:42;30.92;;;18.88;;
26965;SDS011;14522;52.068;4.414;2022-12-17T06:23:27;36.28;;;20.60;;
26965;SDS011;14522;52.068;4.414;2022-12-17T06:26:12;31.27;;;19.20;;
26965;SDS011;14522;52.068;4.414;2022-12-17T06:28:57;29.92;;;19.23;;
26965;SDS011;14522;52.068;4.414;2022-12-17T06:31:42;34.28;;;20.38;;
26965;SDS011;14522;52.068;4.414;2022-12-17T06:34:27;35.92;;;21.33;;
26965;SDS011;14522;52.068;4.414;2022-12-17T06:37:12;30.95;;;18.45;;
26965;SDS011;14522;52.068;4.414;2022-12-17T06:39:57;32.00;;;19.90;;
26965;SDS011;14522;52.068;4.414;2022-12-17T06:42:50;33.97;;;20.55;;
26965;SDS011;14522;52.068;4.414;2022-12-17T06:45:35;36.00;;;20.17;;
26965;SDS011;14522;52.068;4.414;2022-12-17T06:48:20;31.58;;;19.13;;
26965;SDS011;14522;52.068;4.414;2022-12-17T06:51:05;31.35;;;18.50;;
26965;SDS011;14522;52.068;4.414;2022-12-17T06:53:51;26.27;;;16.90;;
26965;SDS011;14522;52.068;4.414;2022-12-17T06:56:36;32.67;;;19.58;;
26965;SDS011;14522;52.068;4.414;2022-12-17T06:59:21;33.05;;;20.38;;
26965;SDS011;14522;52.068;4.414;2022-12-17T07:02:08;33.83;;;20.38;;
26965;SDS011;14522;52.068;4.414;2022-12-17T07:04:53;34.05;;;20.25;;
26965;SDS011;14522;52.068;4.414;2022-12-17T07:07:38;31.70;;;19.38;;
26965;SDS011;14522;52.068;4.414;2022-12-17T07:10:23;31.98;;;18.42;;
26965;SDS011;14522;52.068;4.414;2022-12-17T07:13:08;33.08;;;19.35;;
26965;SDS011;14522;52.068;4.414;2022-12-17T07:15:53;35.13;;;19.40;;
26965;SDS011;14522;52.068;4.414;2022-12-17T07:18:38;35.00;;;19.73;;
26965;SDS011;14522;52.068;4.414;2022-12-17T07:21:24;24.67;;;14.98;;
26965;SDS011;14522;52.068;4.414;2022-12-17T07:24:09;30.45;;;18.65;;
26965;SDS011;14522;52.068;4.414;2022-12-17T07:26:54;31.27;;;18.48;;
26965;SDS011;14522;52.068;4.414;2022-12-17T07:29:39;28.27;;;15.45;;
26965;SDS011;14522;52.068;4.414;2022-12-17T07:32:24;33.60;;;19.45;;
26965;SDS011;14522;52.068;4.414;2022-12-17T07:35:09;29.42;;;17.60;;
26965;SDS011;14522;52.068;4.414;2022-12-17T07:37:58;25.58;;;16.95;;
26965;SDS011;14522;52.068;4.414;2022-12-17T07:40:43;30.45;;;18.27;;
26965;SDS011;14522;52.068;4.414;2022-12-17T07:43:28;32.22;;;19.30;;
26965;SDS011;14522;52.068;4.414;2022-12-17T07:46:18;29.88;;;19.35;;
26965;SDS011;14522;52.068;4.414;2022-12-17T07:49:03;30.33;;;18.42;;
26965;SDS011;14522;52.068;4.414;2022-12-17T07:51:51;25.33;;;16.65;;
26965;SDS011;14522;52.068;4.414;2022-12-17T07:54:38;29.17;;;17.45;;
26965;SDS011;14522;52.068;4.414;2022-12-17T07:57:24;25.03;;;17.07;;
26965;SDS011;14522;52.068;4.414;2022-12-17T08:00:12;29.20;;;18.15;;
26965;SDS011;14522;52.068;4.414;2022-12-17T08:02:57;27.30;;;17.20;;
26965;SDS011;14522;52.068;4.414;2022-12-17T08:05:42;29.23;;;16.73;;
26965;SDS011;14522;52.068;4.414;2022-12-17T08:08:27;29.83;;;17.30;;
26965;SDS011;14522;52.068;4.414;2022-12-17T08:11:19;32.47;;;17.05;;
26965;SDS011;14522;52.068;4.414;2022-12-17T08:14:04;24.83;;;15.15;;
26965;SDS011;14522;52.068;4.414;2022-12-17T08:16:49;27.80;;;15.70;;
26965;SDS011;14522;52.068;4.414;2022-12-17T08:19:35;23.13;;;14.95;;
26965;SDS011;14522;52.068;4.414;2022-12-17T08:22:20;26.42;;;14.63;;
26965;SDS011;14522;52.068;4.414;2022-12-17T08:25:05;26.10;;;14.10;;
26965;SDS011;14522;52.068;4.414;2022-12-17T08:27:54;21.95;;;13.32;;
26965;SDS011;14522;52.068;4.414;2022-12-17T08:30:59;21.45;;;13.25;;
26965;SDS011;14522;52.068;4.414;2022-12-17T08:33:44;19.37;;;12.83;;
26965;SDS011;14522;52.068;4.414;2022-12-17T08:36:33;22.10;;;14.32;;
26965;SDS011;14522;52.068;4.414;2022-12-17T08:39:18;24.00;;;15.00;;
26965;SDS011;14522;52.068;4.414;2022-12-17T08:42:03;19.52;;;12.68;;
26965;SDS011;14522;52.068;4.414;2022-12-17T08:44:48;27.48;;;14.57;;
26965;SDS011;14522;52.068;4.414;2022-12-17T08:47:33;26.65;;;15.02;;
26965;SDS011;14522;52.068;4.414;2022-12-17T08:50:18;25.63;;;15.55;;
26965;SDS011;14522;52.068;4.414;2022-12-17T08:53:03;25.13;;;15.65;;
26965;SDS011;14522;52.068;4.414;2022-12-17T08:55:48;25.65;;;14.43;;
26965;SDS011;14522;52.068;4.414;2022-12-17T08:58:34;29.20;;;16.00;;
26965;SDS011;14522;52.068;4.414;2022-12-17T09:01:24;23.25;;;14.48;;
26965;SDS011;14522;52.068;4.414;2022-12-17T09:04:09;21.52;;;13.82;;
26965;SDS011;14522;52.068;4.414;2022-12-17T09:06:54;24.33;;;14.70;;
26965;SDS011;14522;52.068;4.414;2022-12-17T09:09:47;24.48;;;14.90;;
26965;SDS011;14522;52.068;4.414;2022-12-17T09:12:33;23.88;;;14.63;;
26965;SDS011;14522;52.068;4.414;2022-12-17T09:15:18;22.52;;;13.52;;
26965;SDS011;14522;52.068;4.414;2022-12-17T09:18:08;27.08;;;15.75;;
26965;SDS011;14522;52.068;4.414;2022-12-17T09:20:53;26.20;;;13.55;;
26965;SDS011;14522;52.068;4.414;2022-12-17T09:23:39;17.23;;;11.73;;
26965;SDS011;14522;52.068;4.414;2022-12-17T09:26:25;21.65;;;14.80;;
26965;SDS011;14522;52.068;4.414;2022-12-17T09:29:10;23.13;;;14.70;;
26965;SDS011;14522;52.068;4.414;2022-12-17T09:31:54;25.10;;;14.70;;
26965;SDS011;14522;52.068;4.414;2022-12-17T09:34:40;25.88;;;13.63;;
26965;SDS011;14522;52.068;4.414;2022-12-17T09:37:25;25.65;;;13.88;;
26965;SDS011;14522;52.068;4.414;2022-12-17T09:40:14;27.65;;;13.57;;
26965;SDS011;14522;52.068;4.414;2022-12-17T09:43:02;26.05;;;15.45;;
26965;SDS011;14522;52.068;4.414;2022-12-17T09:45:55;22.63;;;13.38;;
26965;SDS011;14522;52.068;4.414;2022-12-17T09:48:45;24.00;;;11.93;;
26965;SDS011;14522;52.068;4.414;2022-12-17T09:51:32;26.33;;;15.13;;
26965;SDS011;14522;52.068;4.414;2022-12-17T09:57:03;23.83;;;14.82;;
26965;SDS011;14522;52.068;4.414;2022-12-17T10:00:02;23.08;;;14.77;;
26965;SDS011;14522;52.068;4.414;2022-12-17T10:02:47;21.48;;;13.98;;
26965;SDS011;14522;52.068;4.414;2022-12-17T10:05:32;23.90;;;13.48;;
26965;SDS011;14522;52.068;4.414;2022-12-17T10:08:19;28.08;;;13.48;;
26965;SDS011;14522;52.068;4.414;2022-12-17T10:11:26;28.20;;;16.40;;
26965;SDS011;14522;52.068;4.414;2022-12-17T10:14:15;22.13;;;13.75;;
26965;SDS011;14522;52.068;4.414;2022-12-17T10:17:01;24.73;;;15.00;;
26965;SDS011;14522;52.068;4.414;2022-12-17T10:19:51;27.00;;;16.42;;
26965;SDS011;14522;52.068;4.414;2022-12-17T10:22:47;26.10;;;15.80;;
26965;SDS011;14522;52.068;4.414;2022-12-17T10:25:34;30.42;;;16.45;;
26965;SDS011;14522;52.068;4.414;2022-12-17T10:28:20;23.42;;;14.30;;
26965;SDS011;14522;52.068;4.414;2022-12-17T10:31:09;22.98;;;13.57;;
26965;SDS011;14522;52.068;4.414;2022-12-17T10:33:55;23.65;;;14.73;;
26965;SDS011;14522;52.068;4.414;2022-12-17T10:36:44;31.40;;;15.13;;
26965;SDS011;14522;52.068;4.414;2022-12-17T10:39:30;20.23;;;11.80;;
26965;SDS011;14522;52.068;4.414;2022-12-17T10:45:27;28.67;;;16.40;;
26965;SDS011;14522;52.068;4.414;2022-12-17T10:48:23;30.17;;;17.98;;
26965;SDS011;14522;52.068;4.414;2022-12-17T10:51:41;30.70;;;18.10;;
26965;SDS011;14522;52.068;4.414;2022-12-17T10:54:23;28.85;;;17.77;;
26965;SDS011;14522;52.068;4.414;2022-12-17T10:57:32;24.77;;;13.70;;
26965;SDS011;14522;52.068;4.414;2022-12-17T11:00:31;30.10;;;16.92;;
26965;SDS011;14522;52.068;4.414;2022-12-17T11:03:24;28.70;;;16.02;;
26965;SDS011;14522;52.068;4.414;2022-12-17T11:06:11;36.67;;;16.08;;
26965;SDS011;14522;52.068;4.414;2022-12-17T11:08:57;35.40;;;17.60;;
26965;SDS011;14522;52.068;4.414;2022-12-17T11:11:44;25.33;;;15.45;;
26965;SDS011;14522;52.068;4.414;2022-12-17T11:14:33;26.48;;;16.05;;
26965;SDS011;14522;52.068;4.414;2022-12-17T11:17:24;28.20;;;16.48;;
26965;SDS011;14522;52.068;4.414;2022-12-17T11:20:23;17.60;;;11.55;;
26965;SDS011;14522;52.068;4.414;2022-12-17T11:23:15;29.05;;;15.23;;
26965;SDS011;14522;52.068;4.414;2022-12-17T11:26:05;23.77;;;15.02;;
26965;SDS011;14522;52.068;4.414;2022-12-17T11:28:52;24.10;;;14.60;;
26965;SDS011;14522;52.068;4.414;2022-12-17T11:43:31;26.13;;;15.85;;
26965;SDS011;14522;52.068;4.414;2022-12-17T12:06:43;28.30;;;15.80;;
26965;SDS011;14522;52.068;4.414;2022-12-17T12:09:36;22.77;;;13.93;;
26965;SDS011;14522;52.068;4.414;2022-12-17T12:12:30;19.73;;;12.70;;
26965;SDS011;14522;52.068;4.414;2022-12-17T12:26:42;20.98;;;12.93;;
26965;SDS011;14522;52.068;4.414;2022-12-17T12:29:41;20.13;;;12.27;;
26965;SDS011;14522;52.068;4.414;2022-12-17T12:35:17;21.83;;;13.27;;
26965;SDS011;14522;52.068;4.414;2022-12-17T12:38:03;25.42;;;13.43;;
26965;SDS011;14522;52.068;4.414;2022-12-17T12:40:59;18.40;;;12.20;;
26965;SDS011;14522;52.068;4.414;2022-12-17T12:43:49;20.15;;;13.18;;
26965;SDS011;14522;52.068;4.414;2022-12-17T12:46:37;11.35;;;6.70;;
26965;SDS011;14522;52.068;4.414;2022-12-17T12:49:25;26.80;;;13.05;;
26965;SDS011;14522;52.068;4.414;2022-12-17T12:52:22;17.75;;;12.02;;
26965;SDS011;14522;52.068;4.414;2022-12-17T12:55:09;18.10;;;10.85;;
26965;SDS011;14522;52.068;4.414;2022-12-17T13:03:48;28.27;;;13.75;;
26965;SDS011;14522;52.068;4.414;2022-12-17T13:14:44;27.83;;;14.40;;
26965;SDS011;14522;52.068;4.414;2022-12-17T13:19:43;25.48;;;14.85;;
26965;SDS011;14522;52.068;4.414;2022-12-17T13:25:31;21.50;;;12.80;;
26965;SDS011;14522;52.068;4.414;2022-12-17T13:27:38;27.92;;;15.48;;
26965;SDS011;14522;52.068;4.414;2022-12-17T13:30:22;28.10;;;15.15;;
26965;SDS011;14522;52.068;4.414;2022-12-17T13:36:04;21.02;;;13.35;;
26965;SDS011;14522;52.068;4.414;2022-12-17T13:38:30;24.83;;;15.07;;
26965;SDS011;14522;52.068;4.414;2022-12-17T13:41:10;25.50;;;16.60;;
26965;SDS011;14522;52.068;4.414;2022-12-17T13:43:38;22.15;;;13.95;;
26965;SDS011;14522;52.068;4.414;2022-12-17T13:46:15;24.10;;;15.25;;
26965;SDS011;14522;52.068;4.414;2022-12-17T13:48:42;23.55;;;15.13;;
26965;SDS011;14522;52.068;4.414;2022-12-17T13:51:18;23.08;;;14.65;;
26965;SDS011;14522;52.068;4.414;2022-12-17T13:53:52;27.85;;;16.85;;
26965;SDS011;14522;52.068;4.414;2022-12-17T13:56:26;20.67;;;13.07;;
26965;SDS011;14522;52.068;4.414;2022-12-17T13:58:54;25.90;;;16.02;;
26965;SDS011;14522;52.068;4.414;2022-12-17T14:01:21;27.35;;;16.98;;
26965;SDS011;14522;52.068;4.414;2022-12-17T14:03:49;25.40;;;15.82;;
26965;SDS011;14522;52.068;4.414;2022-12-17T14:06:34;25.05;;;17.35;;
26965;SDS011;14522;52.068;4.414;2022-12-17T14:09:03;27.17;;;15.85;;
26965;SDS011;14522;52.068;4.414;2022-12-17T14:11:30;26.10;;;17.50;;
26965;SDS011;14522;52.068;4.414;2022-12-17T14:14:24;29.50;;;18.30;;
26965;SDS011;14522;52.068;4.414;2022-12-17T14:16:56;28.15;;;17.50;;
26965;SDS011;14522;52.068;4.414;2022-12-17T14:19:23;31.02;;;18.85;;
26965;SDS011;14522;52.068;4.414;2022-12-17T14:21:50;28.80;;;17.90;;
26965;SDS011;14522;52.068;4.414;2022-12-17T14:24:21;31.52;;;18.88;;
26965;SDS011;14522;52.068;4.414;2022-12-17T14:26:58;27.58;;;17.58;;
26965;SDS011;14522;52.068;4.414;2022-12-17T14:29:26;27.92;;;18.65;;
26965;SDS011;14522;52.068;4.414;2022-12-17T14:31:55;29.67;;;18.75;;
26965;SDS011;14522;52.068;4.414;2022-12-17T14:34:21;30.65;;;18.45;;
26965;SDS011;14522;52.068;4.414;2022-12-17T14:36:55;28.98;;;18.27;;
26965;SDS011;14522;52.068;4.414;2022-12-17T14:39:24;30.38;;;19.52;;
26965;SDS011;14522;52.068;4.414;2022-12-17T14:42:06;28.08;;;16.80;;
26965;SDS011;14522;52.068;4.414;2022-12-17T14:47:32;27.02;;;18.40;;
26965;SDS011;14522;52.068;4.414;2022-12-17T14:50:06;30.75;;;18.83;;
26965;SDS011;14522;52.068;4.414;2022-12-17T14:52:35;31.48;;;18.98;;
26965;SDS011;14522;52.068;4.414;2022-12-17T14:57:50;26.98;;;14.90;;
26965;SDS011;14522;52.068;4.414;2022-12-17T15:00:21;28.10;;;19.33;;
26965;SDS011;14522;52.068;4.414;2022-12-17T15:02:49;33.10;;;19.90;;
26965;SDS011;14522;52.068;4.414;2022-12-17T15:05:20;31.50;;;20.00;;
26965;SDS011;14522;52.068;4.414;2022-12-17T15:07:50;38.25;;;21.02;;
26965;SDS011;14522;52.068;4.414;2022-12-17T15:10:23;32.47;;;20.33;;
26965;SDS011;14522;52.068;4.414;2022-12-17T15:12:51;32.00;;;19.77;;
26965;SDS011;14522;52.068;4.414;2022-12-17T15:15:19;31.73;;;20.42;;
26965;SDS011;14522;52.068;4.414;2022-12-17T15:17:47;30.83;;;20.20;;
26965;SDS011;14522;52.068;4.414;2022-12-17T15:20:18;30.73;;;19.20;;
26965;SDS011;14522;52.068;4.414;2022-12-17T15:22:45;31.92;;;19.88;;
26965;SDS011;14522;52.068;4.414;2022-12-17T15:25:15;32.63;;;20.00;;
26965;SDS011;14522;52.068;4.414;2022-12-17T15:27:43;30.45;;;19.80;;
26965;SDS011;14522;52.068;4.414;2022-12-17T15:30:13;34.08;;;19.15;;
26965;SDS011;14522;52.068;4.414;2022-12-17T15:32:43;36.33;;;21.70;;
26965;SDS011;14522;52.068;4.414;2022-12-17T15:35:13;31.17;;;21.02;;
26965;SDS011;14522;52.068;4.414;2022-12-17T15:37:42;31.05;;;19.90;;
26965;SDS011;14522;52.068;4.414;2022-12-17T15:40:09;31.60;;;20.42;;
26965;SDS011;14522;52.068;4.414;2022-12-17T15:42:37;38.45;;;22.75;;
26965;SDS011;14522;52.068;4.414;2022-12-17T15:45:34;35.65;;;22.85;;
26965;SDS011;14522;52.068;4.414;2022-12-17T15:48:00;37.65;;;22.90;;
26965;SDS011;14522;52.068;4.414;2022-12-17T15:50:28;25.45;;;16.27;;
26965;SDS011;14522;52.068;4.414;2022-12-17T15:52:55;36.03;;;21.13;;
26965;SDS011;14522;52.068;4.414;2022-12-17T15:55:22;34.88;;;23.63;;
26965;SDS011;14522;52.068;4.414;2022-12-17T15:57:52;36.30;;;22.20;;
26965;SDS011;14522;52.068;4.414;2022-12-17T16:00:19;37.50;;;22.17;;
26965;SDS011;14522;52.068;4.414;2022-12-17T16:02:46;39.17;;;23.10;;
26965;SDS011;14522;52.068;4.414;2022-12-17T16:05:14;42.33;;;23.88;;
26965;SDS011;14522;52.068;4.414;2022-12-17T16:07:40;39.88;;;23.42;;
26965;SDS011;14522;52.068;4.414;2022-12-17T16:10:09;43.60;;;23.30;;
26965;SDS011;14522;52.068;4.414;2022-12-17T16:12:36;38.92;;;23.27;;
26965;SDS011;14522;52.068;4.414;2022-12-17T16:15:04;26.25;;;16.77;;
26965;SDS011;14522;52.068;4.414;2022-12-17T16:17:32;37.42;;;22.85;;
26965;SDS011;14522;52.068;4.414;2022-12-17T16:19:59;40.20;;;23.98;;
26965;SDS011;14522;52.068;4.414;2022-12-17T16:22:26;47.08;;;23.58;;
26965;SDS011;14522;52.068;4.414;2022-12-17T16:24:54;34.97;;;20.40;;
26965;SDS011;14522;52.068;4.414;2022-12-17T16:27:21;42.60;;;24.30;;
26965;SDS011;14522;52.068;4.414;2022-12-17T16:29:47;39.97;;;24.40;;
26965;SDS011;14522;52.068;4.414;2022-12-17T16:32:15;43.78;;;25.55;;
26965;SDS011;14522;52.068;4.414;2022-12-17T16:34:43;42.70;;;25.05;;
26965;SDS011;14522;52.068;4.414;2022-12-17T16:37:10;46.97;;;25.92;;
26965;SDS011;14522;52.068;4.414;2022-12-17T16:39:36;48.20;;;27.23;;
26965;SDS011;14522;52.068;4.414;2022-12-17T16:42:03;38.92;;;24.23;;
26965;SDS011;14522;52.068;4.414;2022-12-17T16:44:29;40.70;;;24.05;;
26965;SDS011;14522;52.068;4.414;2022-12-17T16:46:56;47.20;;;26.13;;
26965;SDS011;14522;52.068;4.414;2022-12-17T16:49:25;54.10;;;26.10;;
26965;SDS011;14522;52.068;4.414;2022-12-17T16:51:51;51.00;;;26.60;;
26965;SDS011;14522;52.068;4.414;2022-12-17T16:54:20;46.88;;;27.95;;
26965;SDS011;14522;52.068;4.414;2022-12-17T16:56:47;52.15;;;27.05;;
26965;SDS011;14522;52.068;4.414;2022-12-17T16:59:15;49.75;;;29.50;;
26965;SDS011;14522;52.068;4.414;2022-12-17T17:01:43;46.88;;;26.13;;
26965;SDS011;14522;52.068;4.414;2022-12-17T17:04:10;51.63;;;28.45;;
26965;SDS011;14522;52.068;4.414;2022-12-17T17:06:40;46.63;;;27.35;;
26965;SDS011;14522;52.068;4.414;2022-12-17T17:09:08;46.28;;;26.40;;
26965;SDS011;14522;52.068;4.414;2022-12-17T17:11:34;52.05;;;28.27;;
26965;SDS011;14522;52.068;4.414;2022-12-17T17:14:01;48.33;;;27.27;;
26965;SDS011;14522;52.068;4.414;2022-12-17T17:16:32;50.45;;;28.50;;
26965;SDS011;14522;52.068;4.414;2022-12-17T17:19:02;52.22;;;27.90;;
26965;SDS011;14522;52.068;4.414;2022-12-17T17:21:30;50.60;;;26.75;;
26965;SDS011;14522;52.068;4.414;2022-12-17T17:23:58;51.72;;;28.05;;
26965;SDS011;14522;52.068;4.414;2022-12-17T17:26:25;49.85;;;28.25;;
26965;SDS011;14522;52.068;4.414;2022-12-17T17:28:52;50.50;;;28.13;;
26965;SDS011;14522;52.068;4.414;2022-12-17T17:31:19;47.58;;;28.02;;
26965;SDS011;14522;52.068;4.414;2022-12-17T17:33:47;50.65;;;27.52;;